Glenwood, MN

11:41 AM CST on February 14, 2016 (GMT -0600)
Krueger Compound | | Change Station
CLOSE
Current Station
Personal Weather Station
Location: Glenwood, MN
Elevation: 1293 ft
Nearby Weather Stations

Elev 1293 ft 45.60 °N, 95.42 °W | Updated 7 minutes ago

Snow
Snow
19.0 °F
Feels Like 12 °F
N
4.7
Wind Variable Wind from North

Today
High -- | Low -- °F
--% Chance of Precip.
Yesterday
High -- | Low -- °F
Precip. -- in
Pressure 29.88 in
Visibility 2.0 miles
Clouds Overcast 1100 ft
Windchill 12 °F
Dew Point 12 °F
Humidity 74%
Rainfall 0.00 in
Snow Depth Not available.
7:25 AM 5:46 PM
Waxing Crescent, 43% visible
METAR KGHW 141734Z AUTO 15015KT 2SM -SN OVC011 M09/M12 A2988 RMK AO2
Pressure 29.88 in
Visibility 2.0 miles
Clouds Overcast 1100 ft
Windchill 12 °F
Dew Point 12 °F
Humidity 74%
Rainfall 0.00 in
Snow Depth Not available.
7:25 AM 5:46 PM
Waxing Crescent, 43% visible
METAR KGHW 141734Z AUTO 15015KT 2SM -SN OVC011 M09/M12 A2988 RMK AO2

10-Day Weather Forecast

Almanac

Astronomy

Feb. 14, 2016 Rise Set
Actual Time
Civil Twilight
Nautical Twilight
Astronomical Twilight
Moon
Length of Visible Light
Length of Day
Tomorrow will be .
, % of the Moon is Illuminated

Today's Extremes

State Highs State Lows

Community

WunderPhotos

Upload Photos

1,892,860 photos uploaded!

WunderBlog® & News

Nearby

Air Quality

  Air Quality AQ Index Pollutant
Not available.

Snow Depth

Station Depth Elevation

Earthquake Activity

City Distance Mag. Time & Date
Minimum magnitude displayed is 2.5.

Coastal Water Temperatures

Place Temperature

Stations

Nearby Weather Stations

Station Location Temp. Windchill Dew Point Humidity Wind Precip. Elev Updated Type
                   

Watches & Warnings

There are currently no watches in effect.